Takamatsu, Japan
Current Conditions -  °F | °C
As of 9:00 PM on Saturday 20 Dec 2014 (Local Time) from RJOT Reporting Station
Broken Clouds Broken Clouds  
Wind Chill: 39°   Ceiling: 6000
Heat Index: 45°   Visibility: 6mi
Dew Point: 41°   Wind: 10mph
Humidity: 87%   Direction: 290°WNW
Pressure: 29.97"   Gusts: NA
Location:  34.34°N, 134.04°E
Report Text: RJOT 201200Z 29009KT 9999 FEW020 SCT030 BKN060 07/05 Q1015
Loading
Personal Weather Stations






























Interactive Weather Map New forecast layout! Learn more

10-Day Weather Forecast

Advertisements
Track Severe Weather on mobile